sensor_id;sensor_type;location;lat;lon;timestamp;pressure;altitude;pressure_sealevel;temperature;humidity
50310;BME280;36207;51.850;21.698;2024-02-26T00:01:44;99082.00;;;7.37;77.84
50310;BME280;36207;51.850;21.698;2024-02-26T00:04:11;99075.81;;;7.31;77.91
50310;BME280;36207;51.850;21.698;2024-02-26T00:06:38;99075.38;;;7.26;77.93
50310;BME280;36207;51.850;21.698;2024-02-26T00:09:07;99078.21;;;7.21;77.98
50310;BME280;36207;51.850;21.698;2024-02-26T00:11:35;99076.44;;;7.20;78.11
50310;BME280;36207;51.850;21.698;2024-02-26T00:14:01;99075.40;;;7.20;78.40
50310;BME280;36207;51.850;21.698;2024-02-26T00:16:27;99071.55;;;7.13;78.65
50310;BME280;36207;51.850;21.698;2024-02-26T00:18:53;99077.70;;;7.07;78.56
50310;BME280;36207;51.850;21.698;2024-02-26T00:21:19;99075.64;;;7.08;78.88
50310;BME280;36207;51.850;21.698;2024-02-26T00:23:45;99070.63;;;7.12;79.31
50310;BME280;36207;51.850;21.698;2024-02-26T00:26:11;99066.91;;;7.12;79.35
50310;BME280;36207;51.850;21.698;2024-02-26T00:28:37;99064.23;;;7.10;79.22
50310;BME280;36207;51.850;21.698;2024-02-26T00:31:03;99063.62;;;7.08;78.74
50310;BME280;36207;51.850;21.698;2024-02-26T00:33:29;99063.27;;;7.07;78.50
50310;BME280;36207;51.850;21.698;2024-02-26T00:35:55;99067.21;;;7.03;78.47
50310;BME280;36207;51.850;21.698;2024-02-26T00:38:21;99073.79;;;6.97;78.42
50310;BME280;36207;51.850;21.698;2024-02-26T00:40:47;99074.07;;;6.93;78.54
50310;BME280;36207;51.850;21.698;2024-02-26T00:43:13;99069.80;;;6.89;78.75
50310;BME280;36207;51.850;21.698;2024-02-26T00:45:39;99068.98;;;6.87;78.73
50310;BME280;36207;51.850;21.698;2024-02-26T00:48:05;99070.48;;;6.86;78.79
50310;BME280;36207;51.850;21.698;2024-02-26T00:50:31;99068.25;;;6.82;78.64
50310;BME280;36207;51.850;21.698;2024-02-26T00:52:58;99066.11;;;6.78;78.46
50310;BME280;36207;51.850;21.698;2024-02-26T00:55:23;99067.73;;;6.76;78.39
50310;BME280;36207;51.850;21.698;2024-02-26T00:57:49;99061.90;;;6.66;78.04
50310;BME280;36207;51.850;21.698;2024-02-26T01:00:16;99060.96;;;6.60;78.19
50310;BME280;36207;51.850;21.698;2024-02-26T01:02:42;99060.11;;;6.53;78.42
50310;BME280;36207;51.850;21.698;2024-02-26T01:05:08;99060.59;;;6.50;78.74
50310;BME280;36207;51.850;21.698;2024-02-26T01:07:37;99062.06;;;6.50;78.78
50310;BME280;36207;51.850;21.698;2024-02-26T01:10:06;99056.48;;;6.49;78.61
50310;BME280;36207;51.850;21.698;2024-02-26T01:12:33;99058.48;;;6.49;78.47
50310;BME280;36207;51.850;21.698;2024-02-26T01:15:03;99057.21;;;6.44;78.44
50310;BME280;36207;51.850;21.698;2024-02-26T01:17:29;99060.21;;;6.38;78.42
50310;BME280;36207;51.850;21.698;2024-02-26T01:19:56;99061.84;;;6.34;78.37
50310;BME280;36207;51.850;21.698;2024-02-26T01:22:22;99060.77;;;6.31;78.50
50310;BME280;36207;51.850;21.698;2024-02-26T01:24:48;99060.30;;;6.30;78.71
50310;BME280;36207;51.850;21.698;2024-02-26T01:27:14;99057.34;;;6.31;78.85
50310;BME280;36207;51.850;21.698;2024-02-26T01:29:41;99053.36;;;6.30;78.94
50310;BME280;36207;51.850;21.698;2024-02-26T01:32:08;99053.88;;;6.29;79.15
50310;BME280;36207;51.850;21.698;2024-02-26T01:34:34;99056.56;;;6.27;79.02
50310;BME280;36207;51.850;21.698;2024-02-26T01:37:00;99057.44;;;6.25;79.07
50310;BME280;36207;51.850;21.698;2024-02-26T01:39:26;99058.77;;;6.25;79.09
50310;BME280;36207;51.850;21.698;2024-02-26T01:41:54;99056.60;;;6.26;79.28
50310;BME280;36207;51.850;21.698;2024-02-26T01:44:21;99055.11;;;6.24;79.21
50310;BME280;36207;51.850;21.698;2024-02-26T01:46:48;99053.98;;;6.21;79.13
50310;BME280;36207;51.850;21.698;2024-02-26T01:49:14;99058.36;;;6.19;79.11
50310;BME280;36207;51.850;21.698;2024-02-26T01:51:41;99057.40;;;6.15;79.17
50310;BME280;36207;51.850;21.698;2024-02-26T01:54:09;99059.29;;;6.09;78.78
50310;BME280;36207;51.850;21.698;2024-02-26T01:56:36;99064.71;;;6.03;78.85
50310;BME280;36207;51.850;21.698;2024-02-26T01:59:03;99063.58;;;5.99;78.91
50310;BME280;36207;51.850;21.698;2024-02-26T02:01:32;99061.80;;;6.01;79.19
50310;BME280;36207;51.850;21.698;2024-02-26T02:03:59;99060.70;;;6.03;79.55
50310;BME280;36207;51.850;21.698;2024-02-26T02:06:27;99056.63;;;6.04;79.51
50310;BME280;36207;51.850;21.698;2024-02-26T02:08:56;99059.27;;;6.08;79.74
50310;BME280;36207;51.850;21.698;2024-02-26T02:11:22;99058.62;;;6.11;79.72
50310;BME280;36207;51.850;21.698;2024-02-26T02:13:48;99060.36;;;6.12;79.84
50310;BME280;36207;51.850;21.698;2024-02-26T02:16:14;99060.13;;;6.13;79.68
50310;BME280;36207;51.850;21.698;2024-02-26T02:18:40;99060.95;;;6.13;79.63
50310;BME280;36207;51.850;21.698;2024-02-26T02:21:06;99066.59;;;6.13;79.63
50310;BME280;36207;51.850;21.698;2024-02-26T02:23:32;99070.27;;;6.12;79.57
50310;BME280;36207;51.850;21.698;2024-02-26T02:25:58;99074.78;;;6.11;79.79
50310;BME280;36207;51.850;21.698;2024-02-26T02:28:26;99072.29;;;6.13;79.85
50310;BME280;36207;51.850;21.698;2024-02-26T02:30:53;99066.48;;;6.14;79.90
50310;BME280;36207;51.850;21.698;2024-02-26T02:33:20;99069.14;;;6.17;79.92
50310;BME280;36207;51.850;21.698;2024-02-26T02:35:47;99071.45;;;6.20;80.30
50310;BME280;36207;51.850;21.698;2024-02-26T02:38:14;99068.88;;;6.24;80.37
50310;BME280;36207;51.850;21.698;2024-02-26T02:40:40;99064.89;;;6.29;80.31
50310;BME280;36207;51.850;21.698;2024-02-26T02:43:06;99063.21;;;6.31;80.02
50310;BME280;36207;51.850;21.698;2024-02-26T02:45:32;99063.54;;;6.31;80.19
50310;BME280;36207;51.850;21.698;2024-02-26T02:47:58;99068.63;;;6.30;80.12
50310;BME280;36207;51.850;21.698;2024-02-26T02:50:24;99070.38;;;6.28;80.29
50310;BME280;36207;51.850;21.698;2024-02-26T02:52:50;99075.79;;;6.28;80.43
50310;BME280;36207;51.850;21.698;2024-02-26T02:55:16;99074.49;;;6.28;80.68
50310;BME280;36207;51.850;21.698;2024-02-26T02:57:42;99071.56;;;6.31;80.61
50310;BME280;36207;51.850;21.698;2024-02-26T03:00:09;99070.86;;;6.32;80.49
50310;BME280;36207;51.850;21.698;2024-02-26T03:02:36;99071.70;;;6.31;80.35
50310;BME280;36207;51.850;21.698;2024-02-26T03:05:03;99070.49;;;6.27;79.99
50310;BME280;36207;51.850;21.698;2024-02-26T03:07:29;99066.48;;;6.21;79.77
50310;BME280;36207;51.850;21.698;2024-02-26T03:09:55;99068.26;;;6.16;79.68
50310;BME280;36207;51.850;21.698;2024-02-26T03:12:21;99068.63;;;6.11;79.60
50310;BME280;36207;51.850;21.698;2024-02-26T03:14:47;99069.66;;;6.06;79.72
50310;BME280;36207;51.850;21.698;2024-02-26T03:17:13;99075.04;;;5.99;79.77
50310;BME280;36207;51.850;21.698;2024-02-26T03:19:39;99081.64;;;5.91;79.38
50310;BME280;36207;51.850;21.698;2024-02-26T03:22:05;99087.92;;;5.82;79.34
50310;BME280;36207;51.850;21.698;2024-02-26T03:24:31;99087.02;;;5.76;79.35
50310;BME280;36207;51.850;21.698;2024-02-26T03:26:57;99083.33;;;5.73;79.26
50310;BME280;36207;51.850;21.698;2024-02-26T03:29:24;99080.47;;;5.73;79.51
50310;BME280;36207;51.850;21.698;2024-02-26T03:31:50;99080.79;;;5.75;79.83
50310;BME280;36207;51.850;21.698;2024-02-26T03:34:16;99077.71;;;5.77;79.98
50310;BME280;36207;51.850;21.698;2024-02-26T03:36:43;99075.13;;;5.79;79.94
50310;BME280;36207;51.850;21.698;2024-02-26T03:39:09;99072.02;;;5.82;79.97
50310;BME280;36207;51.850;21.698;2024-02-26T03:41:36;99079.02;;;5.82;80.11
50310;BME280;36207;51.850;21.698;2024-02-26T03:44:02;99084.89;;;5.81;80.34
50310;BME280;36207;51.850;21.698;2024-02-26T03:46:28;99085.63;;;5.77;80.33
50310;BME280;36207;51.850;21.698;2024-02-26T03:48:54;99083.14;;;5.76;80.44
50310;BME280;36207;51.850;21.698;2024-02-26T03:51:19;99086.39;;;5.77;80.59
50310;BME280;36207;51.850;21.698;2024-02-26T03:53:46;99084.76;;;5.78;80.51
50310;BME280;36207;51.850;21.698;2024-02-26T03:56:12;99090.16;;;5.79;80.58
50310;BME280;36207;51.850;21.698;2024-02-26T03:58:41;99091.02;;;5.80;80.76
50310;BME280;36207;51.850;21.698;2024-02-26T04:01:08;99088.10;;;5.80;80.77
50310;BME280;36207;51.850;21.698;2024-02-26T04:03:35;99092.56;;;5.81;80.72
50310;BME280;36207;51.850;21.698;2024-02-26T04:06:02;99088.46;;;5.82;80.95
50310;BME280;36207;51.850;21.698;2024-02-26T04:08:28;99090.30;;;5.85;80.95
50310;BME280;36207;51.850;21.698;2024-02-26T04:10:54;99085.89;;;5.84;80.91
50310;BME280;36207;51.850;21.698;2024-02-26T04:13:20;99084.05;;;5.83;80.96
50310;BME280;36207;51.850;21.698;2024-02-26T04:15:46;99083.16;;;5.80;80.91
50310;BME280;36207;51.850;21.698;2024-02-26T04:18:13;99083.64;;;5.78;80.80
50310;BME280;36207;51.850;21.698;2024-02-26T04:20:39;99085.83;;;5.74;81.02
50310;BME280;36207;51.850;21.698;2024-02-26T04:23:08;99084.81;;;5.70;81.19
50310;BME280;36207;51.850;21.698;2024-02-26T04:25:34;99086.27;;;5.68;81.08
50310;BME280;36207;51.850;21.698;2024-02-26T04:28:00;99082.07;;;5.68;81.30
50310;BME280;36207;51.850;21.698;2024-02-26T04:30:25;99080.14;;;5.66;81.26
50310;BME280;36207;51.850;21.698;2024-02-26T04:32:52;99079.93;;;5.65;81.27
50310;BME280;36207;51.850;21.698;2024-02-26T04:35:17;99080.14;;;5.63;81.26
50310;BME280;36207;51.850;21.698;2024-02-26T04:37:43;99074.59;;;5.60;81.35
50310;BME280;36207;51.850;21.698;2024-02-26T04:40:10;99075.05;;;5.59;81.33
50310;BME280;36207;51.850;21.698;2024-02-26T04:42:36;99077.90;;;5.59;81.33
50310;BME280;36207;51.850;21.698;2024-02-26T04:45:02;99073.86;;;5.61;81.29
50310;BME280;36207;51.850;21.698;2024-02-26T04:47:28;99078.85;;;5.62;81.21
50310;BME280;36207;51.850;21.698;2024-02-26T04:49:55;99081.50;;;5.62;81.57
50310;BME280;36207;51.850;21.698;2024-02-26T04:52:21;99078.46;;;5.57;81.35
50310;BME280;36207;51.850;21.698;2024-02-26T04:54:47;99074.75;;;5.56;81.34
50310;BME280;36207;51.850;21.698;2024-02-26T04:57:13;99074.47;;;5.55;81.53
50310;BME280;36207;51.850;21.698;2024-02-26T04:59:39;99076.27;;;5.55;81.53
50310;BME280;36207;51.850;21.698;2024-02-26T05:02:07;99078.84;;;5.56;81.47
50310;BME280;36207;51.850;21.698;2024-02-26T05:04:33;99078.41;;;5.55;81.48
50310;BME280;36207;51.850;21.698;2024-02-26T05:06:59;99079.77;;;5.53;81.45
50310;BME280;36207;51.850;21.698;2024-02-26T05:09:26;99080.57;;;5.53;81.64
50310;BME280;36207;51.850;21.698;2024-02-26T05:11:51;99082.12;;;5.53;81.55
50310;BME280;36207;51.850;21.698;2024-02-26T05:14:18;99083.46;;;5.54;81.58
50310;BME280;36207;51.850;21.698;2024-02-26T05:16:44;99084.93;;;5.53;81.85
50310;BME280;36207;51.850;21.698;2024-02-26T05:19:10;99085.98;;;5.53;81.70
50310;BME280;36207;51.850;21.698;2024-02-26T05:21:36;99090.23;;;5.55;81.50
50310;BME280;36207;51.850;21.698;2024-02-26T05:24:02;99090.45;;;5.56;81.64
50310;BME280;36207;51.850;21.698;2024-02-26T05:26:27;99094.48;;;5.59;81.72
50310;BME280;36207;51.850;21.698;2024-02-26T05:28:53;99093.95;;;5.65;82.02
50310;BME280;36207;51.850;21.698;2024-02-26T05:31:25;99090.05;;;5.71;82.33
50310;BME280;36207;51.850;21.698;2024-02-26T05:33:52;99093.07;;;5.77;82.73
50310;BME280;36207;51.850;21.698;2024-02-26T05:36:19;99089.64;;;5.82;82.92
50310;BME280;36207;51.850;21.698;2024-02-26T05:38:46;99088.16;;;5.88;82.73
50310;BME280;36207;51.850;21.698;2024-02-26T05:41:12;99091.40;;;5.94;82.86
50310;BME280;36207;51.850;21.698;2024-02-26T05:43:38;99090.44;;;5.99;83.13
50310;BME280;36207;51.850;21.698;2024-02-26T05:46:04;99093.83;;;6.07;84.05
50310;BME280;36207;51.850;21.698;2024-02-26T05:48:30;99097.67;;;6.13;83.96
50310;BME280;36207;51.850;21.698;2024-02-26T05:50:57;99093.19;;;6.20;83.76
50310;BME280;36207;51.850;21.698;2024-02-26T05:53:24;99095.63;;;6.29;84.85
50310;BME280;36207;51.850;21.698;2024-02-26T05:55:50;99094.08;;;6.35;84.69
50310;BME280;36207;51.850;21.698;2024-02-26T05:58:16;99097.92;;;6.41;85.70
50310;BME280;36207;51.850;21.698;2024-02-26T06:00:41;99103.58;;;6.47;86.21
50310;BME280;36207;51.850;21.698;2024-02-26T06:03:07;99105.80;;;6.51;85.34
50310;BME280;36207;51.850;21.698;2024-02-26T06:05:33;99107.16;;;6.55;85.75
50310;BME280;36207;51.850;21.698;2024-02-26T06:07:59;99111.80;;;6.59;86.91
50310;BME280;36207;51.850;21.698;2024-02-26T06:10:25;99116.52;;;6.62;86.75
50310;BME280;36207;51.850;21.698;2024-02-26T06:12:51;99110.73;;;6.65;87.82
50310;BME280;36207;51.850;21.698;2024-02-26T06:15:17;99109.14;;;6.70;87.60
50310;BME280;36207;51.850;21.698;2024-02-26T06:17:42;99110.34;;;6.73;87.47
50310;BME280;36207;51.850;21.698;2024-02-26T06:20:09;99113.30;;;6.78;87.95
50310;BME280;36207;51.850;21.698;2024-02-26T06:22:40;99116.45;;;6.83;87.69
50310;BME280;36207;51.850;21.698;2024-02-26T06:25:07;99118.83;;;6.88;88.51
50310;BME280;36207;51.850;21.698;2024-02-26T06:27:34;99123.04;;;6.95;89.22
50310;BME280;36207;51.850;21.698;2024-02-26T06:30:00;99120.18;;;7.03;89.39
50310;BME280;36207;51.850;21.698;2024-02-26T06:32:26;99123.42;;;7.13;89.56
50310;BME280;36207;51.850;21.698;2024-02-26T06:34:55;99124.86;;;7.22;89.68
50310;BME280;36207;51.850;21.698;2024-02-26T06:37:21;99121.89;;;7.28;89.79
50310;BME280;36207;51.850;21.698;2024-02-26T06:39:48;99124.28;;;7.31;90.75
50310;BME280;36207;51.850;21.698;2024-02-26T06:42:14;99126.16;;;7.36;90.46
50310;BME280;36207;51.850;21.698;2024-02-26T06:44:39;99127.38;;;7.43;89.48
50310;BME280;36207;51.850;21.698;2024-02-26T06:47:05;99129.92;;;7.49;90.53
50310;BME280;36207;51.850;21.698;2024-02-26T06:49:31;99134.19;;;7.55;90.11
50310;BME280;36207;51.850;21.698;2024-02-26T06:51:57;99134.45;;;7.62;90.06
50310;BME280;36207;51.850;21.698;2024-02-26T06:54:23;99134.15;;;7.70;92.12
50310;BME280;36207;51.850;21.698;2024-02-26T06:56:49;99135.23;;;7.75;91.62
50310;BME280;36207;51.850;21.698;2024-02-26T06:59:15;99141.70;;;7.82;91.38
50310;BME280;36207;51.850;21.698;2024-02-26T07:01:42;99143.33;;;7.88;91.60
50310;BME280;36207;51.850;21.698;2024-02-26T07:04:09;99145.02;;;7.94;93.58
50310;BME280;36207;51.850;21.698;2024-02-26T07:06:36;99148.64;;;7.99;92.68
50310;BME280;36207;51.850;21.698;2024-02-26T07:09:02;99146.85;;;8.04;93.14
50310;BME280;36207;51.850;21.698;2024-02-26T07:11:28;99150.98;;;8.10;92.29
50310;BME280;36207;51.850;21.698;2024-02-26T07:13:54;99153.39;;;8.15;92.62
50310;BME280;36207;51.850;21.698;2024-02-26T07:16:20;99151.07;;;8.19;92.88
50310;BME280;36207;51.850;21.698;2024-02-26T07:18:46;99151.73;;;8.25;92.92
50310;BME280;36207;51.850;21.698;2024-02-26T07:21:12;99153.16;;;8.31;92.67
50310;BME280;36207;51.850;21.698;2024-02-26T07:23:38;99148.67;;;8.38;94.09
50310;BME280;36207;51.850;21.698;2024-02-26T07:26:04;99150.13;;;8.43;94.27
50310;BME280;36207;51.850;21.698;2024-02-26T07:28:30;99157.73;;;8.49;93.97
50310;BME280;36207;51.850;21.698;2024-02-26T07:30:56;99156.67;;;8.54;93.15
50310;BME280;36207;51.850;21.698;2024-02-26T07:33:22;99157.95;;;8.58;92.97
50310;BME280;36207;51.850;21.698;2024-02-26T07:35:48;99158.92;;;8.63;92.46
50310;BME280;36207;51.850;21.698;2024-02-26T07:38:14;99165.85;;;8.68;92.01
50310;BME280;36207;51.850;21.698;2024-02-26T07:40:40;99167.11;;;8.74;93.25
50310;BME280;36207;51.850;21.698;2024-02-26T07:43:05;99164.98;;;8.79;92.61
50310;BME280;36207;51.850;21.698;2024-02-26T07:45:31;99169.58;;;8.82;92.39
50310;BME280;36207;51.850;21.698;2024-02-26T07:47:57;99169.36;;;8.85;91.66
50310;BME280;36207;51.850;21.698;2024-02-26T07:50:23;99172.39;;;8.89;91.85
50310;BME280;36207;51.850;21.698;2024-02-26T07:52:49;99174.11;;;8.92;91.95
50310;BME280;36207;51.850;21.698;2024-02-26T07:55:16;99176.42;;;8.95;92.30
50310;BME280;36207;51.850;21.698;2024-02-26T07:57:43;99174.45;;;8.97;91.48
50310;BME280;36207;51.850;21.698;2024-02-26T08:00:10;99178.04;;;9.01;91.97
50310;BME280;36207;51.850;21.698;2024-02-26T08:02:36;99182.08;;;9.03;92.39
50310;BME280;36207;51.850;21.698;2024-02-26T08:05:02;99183.73;;;9.04;92.04
50310;BME280;36207;51.850;21.698;2024-02-26T08:07:28;99189.91;;;9.04;92.95
50310;BME280;36207;51.850;21.698;2024-02-26T08:09:55;99187.62;;;9.04;91.91
50310;BME280;36207;51.850;21.698;2024-02-26T08:12:21;99187.73;;;9.04;91.95
50310;BME280;36207;51.850;21.698;2024-02-26T08:14:46;99182.39;;;9.05;92.37
50310;BME280;36207;51.850;21.698;2024-02-26T08:17:12;99189.04;;;9.07;92.58
50310;BME280;36207;51.850;21.698;2024-02-26T08:19:38;99184.73;;;9.09;91.76
50310;BME280;36207;51.850;21.698;2024-02-26T08:22:04;99183.80;;;9.12;91.88
50310;BME280;36207;51.850;21.698;2024-02-26T08:24:30;99185.28;;;9.15;90.88
50310;BME280;36207;51.850;21.698;2024-02-26T08:26:56;99187.98;;;9.20;91.20
50310;BME280;36207;51.850;21.698;2024-02-26T08:29:22;99182.86;;;9.24;91.71
50310;BME280;36207;51.850;21.698;2024-02-26T08:31:48;99186.21;;;9.28;91.55
50310;BME280;36207;51.850;21.698;2024-02-26T08:34:14;99185.54;;;9.35;91.50
50310;BME280;36207;51.850;21.698;2024-02-26T08:36:40;99188.63;;;9.42;91.86
50310;BME280;36207;51.850;21.698;2024-02-26T08:39:06;99193.33;;;9.50;91.90
50310;BME280;36207;51.850;21.698;2024-02-26T08:41:34;99192.53;;;9.57;91.53
50310;BME280;36207;51.850;21.698;2024-02-26T08:44:00;99189.80;;;9.65;90.76
50310;BME280;36207;51.850;21.698;2024-02-26T08:46:26;99191.43;;;9.69;90.15
50310;BME280;36207;51.850;21.698;2024-02-26T08:48:52;99191.20;;;9.73;90.08
50310;BME280;36207;51.850;21.698;2024-02-26T08:51:18;99194.12;;;9.77;90.09
50310;BME280;36207;51.850;21.698;2024-02-26T08:53:44;99193.93;;;9.80;90.05
50310;BME280;36207;51.850;21.698;2024-02-26T08:56:10;99189.87;;;9.84;89.86
50310;BME280;36207;51.850;21.698;2024-02-26T08:58:43;99188.90;;;9.87;89.55
50310;BME280;36207;51.850;21.698;2024-02-26T09:01:09;99189.13;;;9.90;89.46
50310;BME280;36207;51.850;21.698;2024-02-26T09:03:35;99189.39;;;9.92;89.45
50310;BME280;36207;51.850;21.698;2024-02-26T09:06:01;99192.16;;;9.95;89.45
50310;BME280;36207;51.850;21.698;2024-02-26T09:08:27;99190.02;;;10.01;89.37
50310;BME280;36207;51.850;21.698;2024-02-26T09:10:54;99193.25;;;10.05;89.03
50310;BME280;36207;51.850;21.698;2024-02-26T09:13:19;99191.20;;;10.07;88.88
50310;BME280;36207;51.850;21.698;2024-02-26T09:15:45;99195.52;;;10.14;88.89
50310;BME280;36207;51.850;21.698;2024-02-26T09:18:11;99196.28;;;10.17;88.42
50310;BME280;36207;51.850;21.698;2024-02-26T09:20:37;99193.80;;;10.21;88.73
50310;BME280;36207;51.850;21.698;2024-02-26T09:23:04;99190.47;;;10.31;88.94
50310;BME280;36207;51.850;21.698;2024-02-26T09:25:30;99189.56;;;10.48;89.25
50310;BME280;36207;51.850;21.698;2024-02-26T09:27:56;99188.23;;;10.74;89.10
50310;BME280;36207;51.850;21.698;2024-02-26T09:30:22;99186.89;;;11.07;89.05
50310;BME280;36207;51.850;21.698;2024-02-26T09:32:48;99188.52;;;11.26;87.21
50310;BME280;36207;51.850;21.698;2024-02-26T09:35:14;99194.11;;;11.30;86.57
50310;BME280;36207;51.850;21.698;2024-02-26T09:37:40;99193.41;;;11.23;85.54
50310;BME280;36207;51.850;21.698;2024-02-26T09:40:06;99196.70;;;11.20;86.43
50310;BME280;36207;51.850;21.698;2024-02-26T09:42:34;99197.98;;;11.21;86.45
50310;BME280;36207;51.850;21.698;2024-02-26T09:45:05;99196.42;;;11.27;86.28
50310;BME280;36207;51.850;21.698;2024-02-26T09:47:35;99191.08;;;11.46;85.75
50310;BME280;36207;51.850;21.698;2024-02-26T09:50:02;99194.85;;;11.60;86.07
50310;BME280;36207;51.850;21.698;2024-02-26T09:52:33;99194.41;;;11.69;85.53
50310;BME280;36207;51.850;21.698;2024-02-26T09:55:00;99191.66;;;11.70;84.62
50310;BME280;36207;51.850;21.698;2024-02-26T09:57:27;99192.52;;;11.69;84.22
50310;BME280;36207;51.850;21.698;2024-02-26T09:59:53;99197.10;;;11.65;84.53
50310;BME280;36207;51.850;21.698;2024-02-26T10:02:25;99198.70;;;11.72;84.92
50310;BME280;36207;51.850;21.698;2024-02-26T10:04:51;99194.67;;;11.88;84.74
50310;BME280;36207;51.850;21.698;2024-02-26T10:07:19;99194.58;;;12.03;83.30
50310;BME280;36207;51.850;21.698;2024-02-26T10:09:46;99198.64;;;12.14;83.81
50310;BME280;36207;51.850;21.698;2024-02-26T10:12:12;99200.35;;;12.16;82.69
50310;BME280;36207;51.850;21.698;2024-02-26T10:14:38;99203.22;;;12.07;81.96
50310;BME280;36207;51.850;21.698;2024-02-26T10:17:07;99204.17;;;12.01;83.11
50310;BME280;36207;51.850;21.698;2024-02-26T10:19:34;99204.63;;;12.03;83.25
50310;BME280;36207;51.850;21.698;2024-02-26T10:22:01;99201.29;;;12.06;83.53
50310;BME280;36207;51.850;21.698;2024-02-26T10:24:28;99197.66;;;12.12;83.51
50310;BME280;36207;51.850;21.698;2024-02-26T10:26:55;99189.59;;;12.28;84.90
50310;BME280;36207;51.850;21.698;2024-02-26T10:29:23;99186.61;;;12.58;85.57
50310;BME280;36207;51.850;21.698;2024-02-26T10:31:53;99187.48;;;12.88;84.71
50310;BME280;36207;51.850;21.698;2024-02-26T10:34:20;99189.56;;;12.95;82.75
50310;BME280;36207;51.850;21.698;2024-02-26T10:36:46;99186.87;;;12.88;81.64
50310;BME280;36207;51.850;21.698;2024-02-26T10:39:12;99187.01;;;12.86;82.38
50310;BME280;36207;51.850;21.698;2024-02-26T10:41:43;99191.02;;;12.83;81.24
50310;BME280;36207;51.850;21.698;2024-02-26T10:44:10;99193.91;;;12.80;81.06
50310;BME280;36207;51.850;21.698;2024-02-26T10:46:37;99192.95;;;12.74;80.11
50310;BME280;36207;51.850;21.698;2024-02-26T10:49:04;99186.77;;;12.76;81.93
50310;BME280;36207;51.850;21.698;2024-02-26T10:51:31;99185.09;;;12.89;82.99
50310;BME280;36207;51.850;21.698;2024-02-26T10:54:01;99186.95;;;13.09;81.50
50310;BME280;36207;51.850;21.698;2024-02-26T10:56:33;99182.98;;;13.20;82.25
50310;BME280;36207;51.850;21.698;2024-02-26T10:59:00;99181.95;;;13.39;83.70
50310;BME280;36207;51.850;21.698;2024-02-26T11:01:27;99187.69;;;13.62;80.49
50310;BME280;36207;51.850;21.698;2024-02-26T11:03:55;99182.57;;;13.62;78.20
50310;BME280;36207;51.850;21.698;2024-02-26T11:06:22;99187.15;;;13.63;78.86
50310;BME280;36207;51.850;21.698;2024-02-26T11:08:51;99185.18;;;13.70;79.09
50310;BME280;36207;51.850;21.698;2024-02-26T11:11:19;99182.51;;;13.75;78.63
50310;BME280;36207;51.850;21.698;2024-02-26T11:13:47;99179.67;;;13.78;77.65
50310;BME280;36207;51.850;21.698;2024-02-26T11:16:18;99174.88;;;13.74;76.44
50310;BME280;36207;51.850;21.698;2024-02-26T11:18:47;99177.08;;;13.71;74.28
50310;BME280;36207;51.850;21.698;2024-02-26T11:21:16;99173.33;;;13.75;75.32
50310;BME280;36207;51.850;21.698;2024-02-26T11:23:47;99173.46;;;13.71;75.03
50310;BME280;36207;51.850;21.698;2024-02-26T11:26:15;99172.59;;;13.65;75.86
50310;BME280;36207;51.850;21.698;2024-02-26T11:28:44;99175.21;;;13.63;74.50
50310;BME280;36207;51.850;21.698;2024-02-26T11:31:12;99177.02;;;13.64;75.41
50310;BME280;36207;51.850;21.698;2024-02-26T11:33:39;99180.77;;;13.66;75.61
50310;BME280;36207;51.850;21.698;2024-02-26T11:36:09;99180.59;;;13.67;76.17
50310;BME280;36207;51.850;21.698;2024-02-26T11:38:36;99183.07;;;13.67;74.99
50310;BME280;36207;51.850;21.698;2024-02-26T11:41:04;99174.31;;;13.58;74.58
50310;BME280;36207;51.850;21.698;2024-02-26T11:46:29;99176.20;;;13.37;74.91
50310;BME280;36207;51.850;21.698;2024-02-26T11:48:58;99173.73;;;13.32;73.44
50310;BME280;36207;51.850;21.698;2024-02-26T11:51:27;99174.24;;;13.27;73.46
50310;BME280;36207;51.850;21.698;2024-02-26T11:53:54;99177.14;;;13.24;73.56
50310;BME280;36207;51.850;21.698;2024-02-26T11:56:23;99173.83;;;13.20;73.74
50310;BME280;36207;51.850;21.698;2024-02-26T11:59:01;99180.59;;;13.17;74.76
50310;BME280;36207;51.850;21.698;2024-02-26T12:01:46;99177.45;;;13.14;73.77
50310;BME280;36207;51.850;21.698;2024-02-26T12:04:22;99177.59;;;13.11;74.22
50310;BME280;36207;51.850;21.698;2024-02-26T12:06:53;99179.23;;;13.06;73.45
50310;BME280;36207;51.850;21.698;2024-02-26T12:12:07;99185.77;;;13.03;73.57
50310;BME280;36207;51.850;21.698;2024-02-26T12:14:38;99184.35;;;13.06;74.71
50310;BME280;36207;51.850;21.698;2024-02-26T12:17:06;99180.83;;;13.08;74.17
50310;BME280;36207;51.850;21.698;2024-02-26T12:19:37;99185.87;;;13.07;73.15
50310;BME280;36207;51.850;21.698;2024-02-26T12:22:07;99186.15;;;13.00;72.84
50310;BME280;36207;51.850;21.698;2024-02-26T12:24:34;99186.75;;;12.95;73.08
50310;BME280;36207;51.850;21.698;2024-02-26T12:26:59;99183.23;;;12.91;73.30
50310;BME280;36207;51.850;21.698;2024-02-26T12:29:25;99180.85;;;12.89;73.06
50310;BME280;36207;51.850;21.698;2024-02-26T12:31:52;99182.09;;;12.88;73.13
50310;BME280;36207;51.850;21.698;2024-02-26T12:34:18;99178.27;;;12.86;73.66
50310;BME280;36207;51.850;21.698;2024-02-26T12:36:44;99176.46;;;12.85;74.01
50310;BME280;36207;51.850;21.698;2024-02-26T12:39:15;99181.53;;;12.84;73.63
50310;BME280;36207;51.850;21.698;2024-02-26T12:41:57;99185.12;;;12.84;74.21
50310;BME280;36207;51.850;21.698;2024-02-26T12:44:25;99187.15;;;12.85;74.51
50310;BME280;36207;51.850;21.698;2024-02-26T12:47:01;99188.71;;;12.84;74.51
50310;BME280;36207;51.850;21.698;2024-02-26T12:49:31;99194.77;;;12.83;74.99
50310;BME280;36207;51.850;21.698;2024-02-26T12:51:57;99202.66;;;12.81;74.91
50310;BME280;36207;51.850;21.698;2024-02-26T12:54:31;99204.45;;;12.78;75.11
50310;BME280;36207;51.850;21.698;2024-02-26T12:56:58;99201.95;;;12.75;75.31
50310;BME280;36207;51.850;21.698;2024-02-26T12:59:25;99194.45;;;12.72;75.42
50310;BME280;36207;51.850;21.698;2024-02-26T13:01:51;99195.30;;;12.70;75.57